Time;durP1;ratioP1;P1;durP2;ratioP2;P2;SDS_P1;SDS_P2;PMS_P1;PMS_P2;Temp;Humidity;BMP_temperature;BMP_pressure;BME280_temperature;BME280_humidity;BME280_pressure;Samples;Min_cycle;Max_cycle;Signal;HPM_P1;HPM_P2
2023/12/31 00:00:29;;;;;;;7.55;3.80;;;;;;;;;;5062670;28;20048;-68
2023/12/31 00:02:55;;;;;;;5.95;3.42;;;;;;;;;;5063311;28;20055;-68
2023/12/31 00:05:22;;;;;;;5.30;3.22;;;;;;;;;;5064431;28;20492;-70
2023/12/31 00:07:49;;;;;;;6.32;3.50;;;;;;;;;;5066611;28;20063;-68
2023/12/31 00:10:19;;;;;;;5.88;2.85;;;;;;;;;;5066683;28;20040;-67
2023/12/31 00:12:45;;;;;;;4.72;2.88;;;;;;;;;;5066509;28;20044;-67
2023/12/31 00:15:12;;;;;;;5.25;2.60;;;;;;;;;;5061195;28;20045;-70
2023/12/31 00:17:38;;;;;;;4.53;2.75;;;;;;;;;;5069269;28;20044;-69
2023/12/31 00:20:05;;;;;;;4.95;2.80;;;;;;;;;;5063211;28;20047;-69
2023/12/31 00:22:31;;;;;;;3.95;3.00;;;;;;;;;;5062917;28;20049;-69
2023/12/31 00:24:59;;;;;;;5.68;2.97;;;;;;;;;;5065903;28;20045;-69
2023/12/31 00:27:25;;;;;;;3.90;2.80;;;;;;;;;;5065957;28;20071;-69
2023/12/31 00:29:52;;;;;;;6.40;2.70;;;;;;;;;;5062016;28;20040;-69
2023/12/31 00:32:18;;;;;;;6.32;2.95;;;;;;;;;;5069932;28;20404;-69
2023/12/31 00:34:45;;;;;;;5.22;2.67;;;;;;;;;;5065125;28;20051;-69
2023/12/31 00:37:11;;;;;;;3.45;2.50;;;;;;;;;;5066339;28;20420;-69
2023/12/31 00:39:37;;;;;;;4.72;2.33;;;;;;;;;;5062239;28;20047;-69
2023/12/31 00:42:05;;;;;;;4.95;3.03;;;;;;;;;;5070092;28;20050;-69
2023/12/31 00:44:32;;;;;;;4.38;2.95;;;;;;;;;;5065305;28;20127;-69
2023/12/31 00:46:58;;;;;;;6.28;3.03;;;;;;;;;;5061097;28;20051;-69
2023/12/31 00:49:25;;;;;;;3.95;2.78;;;;;;;;;;5069706;28;20098;-69
2023/12/31 00:51:51;;;;;;;3.53;2.45;;;;;;;;;;5074088;28;20122;-69
2023/12/31 00:54:17;;;;;;;5.57;3.50;;;;;;;;;;5064891;28;20046;-70
2023/12/31 00:56:44;;;;;;;6.50;2.60;;;;;;;;;;5065623;28;20055;-69
2023/12/31 00:59:12;;;;;;;3.10;2.42;;;;;;;;;;5065486;28;20041;-69
2023/12/31 01:01:38;;;;;;;4.63;2.92;;;;;;;;;;5069800;28;20550;-69
2023/12/31 01:04:04;;;;;;;4.20;2.67;;;;;;;;;;5069539;28;20079;-69
2023/12/31 01:06:31;;;;;;;4.78;3.10;;;;;;;;;;5065433;28;20040;-69
2023/12/31 01:08:59;;;;;;;5.05;2.58;;;;;;;;;;5066388;28;20155;-69
2023/12/31 01:11:27;;;;;;;5.28;3.10;;;;;;;;;;5069046;28;20053;-69
2023/12/31 01:13:53;;;;;;;3.97;2.83;;;;;;;;;;5062214;28;20139;-69
2023/12/31 01:16:21;;;;;;;4.25;3.25;;;;;;;;;;5068007;28;20048;-69
2023/12/31 01:18:47;;;;;;;4.32;2.78;;;;;;;;;;5065132;28;20041;-69
2023/12/31 01:21:14;;;;;;;4.90;3.20;;;;;;;;;;5069481;28;20489;-69
2023/12/31 01:23:40;;;;;;;4.75;3.20;;;;;;;;;;5068141;28;20040;-69
2023/12/31 01:26:06;;;;;;;5.13;3.08;;;;;;;;;;5061668;28;20053;-69
2023/12/31 01:28:33;;;;;;;5.25;3.35;;;;;;;;;;5073093;28;20047;-69
2023/12/31 01:30:59;;;;;;;3.90;3.15;;;;;;;;;;5065682;28;20060;-69
2023/12/31 01:33:27;;;;;;;5.75;3.10;;;;;;;;;;5065355;28;20482;-69
2023/12/31 01:35:54;;;;;;;4.47;3.28;;;;;;;;;;5061197;28;20061;-68
2023/12/31 01:38:20;;;;;;;4.07;2.78;;;;;;;;;;5068016;28;20053;-69
2023/12/31 01:40:52;;;;;;;5.15;3.00;;;;;;;;;;5063026;28;20052;-69
2023/12/31 01:43:19;;;;;;;4.05;2.90;;;;;;;;;;5071365;28;20131;-69
2023/12/31 01:45:45;;;;;;;4.60;3.25;;;;;;;;;;5066924;28;20059;-69
2023/12/31 01:48:12;;;;;;;4.03;3.25;;;;;;;;;;5065617;28;20088;-68
2023/12/31 01:50:39;;;;;;;6.07;3.15;;;;;;;;;;5066362;28;20052;-69
2023/12/31 01:53:06;;;;;;;5.75;3.55;;;;;;;;;;5064398;28;20071;-69
2023/12/31 01:55:33;;;;;;;4.93;3.53;;;;;;;;;;5072122;28;20045;-69
2023/12/31 01:57:59;;;;;;;3.78;3.13;;;;;;;;;;5068018;28;20495;-69
2023/12/31 02:00:26;;;;;;;4.68;3.15;;;;;;;;;;5068643;28;20049;-70
2023/12/31 02:02:53;;;;;;;6.15;3.67;;;;;;;;;;5053514;28;20051;-70
2023/12/31 02:05:20;;;;;;;4.78;3.05;;;;;;;;;;5064181;28;20522;-69
2023/12/31 02:07:48;;;;;;;4.97;3.20;;;;;;;;;;5060937;28;20051;-69
2023/12/31 02:10:16;;;;;;;4.38;3.28;;;;;;;;;;5064805;28;20044;-69
2023/12/31 02:12:42;;;;;;;5.78;4.05;;;;;;;;;;5064687;28;20580;-69
2023/12/31 02:15:09;;;;;;;6.47;3.60;;;;;;;;;;5068819;28;20044;-68
2023/12/31 02:17:36;;;;;;;5.75;3.78;;;;;;;;;;5068309;28;20048;-69
2023/12/31 02:20:02;;;;;;;4.88;3.25;;;;;;;;;;5072705;28;20044;-69
2023/12/31 02:22:29;;;;;;;4.47;3.33;;;;;;;;;;5060119;28;20041;-69
2023/12/31 02:24:59;;;;;;;5.20;3.47;;;;;;;;;;5068154;28;20061;-69
2023/12/31 02:27:27;;;;;;;6.35;3.90;;;;;;;;;;5068192;28;20055;-69
2023/12/31 02:29:58;;;;;;;5.40;3.53;;;;;;;;;;5061660;28;20057;-69
2023/12/31 02:32:24;;;;;;;5.05;3.40;;;;;;;;;;5067398;28;20045;-69
2023/12/31 02:34:51;;;;;;;4.47;3.45;;;;;;;;;;5064647;28;20492;-70
2023/12/31 02:37:17;;;;;;;4.25;3.67;;;;;;;;;;5066086;28;20054;-70
2023/12/31 02:39:43;;;;;;;5.03;3.67;;;;;;;;;;5059920;28;20051;-70
2023/12/31 02:42:10;;;;;;;8.88;3.60;;;;;;;;;;5072000;28;20044;-67
2023/12/31 02:44:37;;;;;;;6.35;4.03;;;;;;;;;;5066888;28;20260;-69
2023/12/31 02:47:04;;;;;;;7.80;3.90;;;;;;;;;;5071939;28;20416;-69
2023/12/31 02:49:30;;;;;;;5.43;3.60;;;;;;;;;;5063972;28;20055;-69
2023/12/31 02:51:57;;;;;;;5.88;3.80;;;;;;;;;;5068151;28;20048;-69
2023/12/31 02:54:23;;;;;;;7.05;3.67;;;;;;;;;;5062059;28;20751;-69
2023/12/31 02:56:50;;;;;;;7.68;3.78;;;;;;;;;;5065277;28;20051;-68
2023/12/31 02:59:16;;;;;;;6.15;4.15;;;;;;;;;;5061788;28;20045;-69
2023/12/31 03:01:44;;;;;;;8.52;4.10;;;;;;;;;;5063387;28;20055;-69
2023/12/31 03:04:10;;;;;;;6.55;4.07;;;;;;;;;;5070628;28;20050;-68
2023/12/31 03:06:38;;;;;;;5.63;3.65;;;;;;;;;;5071425;28;20060;-69
2023/12/31 03:09:06;;;;;;;5.70;4.07;;;;;;;;;;5068298;28;20048;-69
2023/12/31 03:11:32;;;;;;;6.30;3.50;;;;;;;;;;5067507;28;20117;-69
2023/12/31 03:13:59;;;;;;;5.47;3.50;;;;;;;;;;5059583;28;20082;-68
2023/12/31 03:16:25;;;;;;;6.20;3.95;;;;;;;;;;5066294;28;20045;-68
2023/12/31 03:18:53;;;;;;;5.35;3.90;;;;;;;;;;5064336;28;20055;-69
2023/12/31 03:21:20;;;;;;;5.65;3.88;;;;;;;;;;5066076;28;20048;-69
2023/12/31 03:23:46;;;;;;;5.55;3.83;;;;;;;;;;5062650;28;20061;-69
2023/12/31 03:26:13;;;;;;;6.05;3.65;;;;;;;;;;5070527;28;20048;-69
2023/12/31 03:28:39;;;;;;;5.53;3.22;;;;;;;;;;5070912;28;20044;-69
2023/12/31 03:31:05;;;;;;;6.70;3.58;;;;;;;;;;5062648;28;20055;-68
2023/12/31 03:33:32;;;;;;;7.32;3.95;;;;;;;;;;5066273;28;20067;-69
2023/12/31 03:36:00;;;;;;;6.90;3.72;;;;;;;;;;5066414;28;20087;-69
2023/12/31 03:38:26;;;;;;;5.78;3.28;;;;;;;;;;5066637;28;20074;-69
2023/12/31 03:40:52;;;;;;;6.10;3.83;;;;;;;;;;5071048;28;20507;-69
2023/12/31 03:43:19;;;;;;;7.75;3.80;;;;;;;;;;5066408;28;20415;-68
2023/12/31 03:45:46;;;;;;;5.32;3.50;;;;;;;;;;5062245;28;20131;-69
2023/12/31 03:48:16;;;;;;;7.05;3.47;;;;;;;;;;5066428;28;20048;-69
2023/12/31 03:50:42;;;;;;;6.70;3.90;;;;;;;;;;5061480;28;20115;-68
2023/12/31 03:53:10;;;;;;;6.53;3.08;;;;;;;;;;5063457;28;20051;-68
2023/12/31 03:55:36;;;;;;;6.15;2.75;;;;;;;;;;5065904;28;20048;-69
2023/12/31 03:58:02;;;;;;;5.85;3.08;;;;;;;;;;5066601;28;20556;-69
2023/12/31 04:00:29;;;;;;;3.38;2.90;;;;;;;;;;5058527;28;20135;-69
2023/12/31 04:02:55;;;;;;;4.80;2.50;;;;;;;;;;5066465;28;20075;-69
2023/12/31 04:05:22;;;;;;;3.78;2.67;;;;;;;;;;5061572;28;20055;-69
2023/12/31 04:07:48;;;;;;;4.70;2.42;;;;;;;;;;5064332;28;20415;-68
2023/12/31 04:10:16;;;;;;;4.13;2.53;;;;;;;;;;5064512;28;20048;-69
2023/12/31 04:12:42;;;;;;;3.83;2.72;;;;;;;;;;5069216;28;20050;-68
2023/12/31 04:15:09;;;;;;;3.85;2.60;;;;;;;;;;5062283;28;20488;-69
2023/12/31 04:17:35;;;;;;;4.15;2.80;;;;;;;;;;5062221;28;20044;-68
2023/12/31 04:20:02;;;;;;;4.47;2.40;;;;;;;;;;5070770;28;20044;-69
2023/12/31 04:22:29;;;;;;;3.38;2.35;;;;;;;;;;5061818;28;20135;-69
2023/12/31 04:24:55;;;;;;;3.78;2.63;;;;;;;;;;5062444;28;20041;-70
2023/12/31 04:27:23;;;;;;;3.88;2.10;;;;;;;;;;5069491;28;20055;-69
2023/12/31 04:29:49;;;;;;;3.92;2.17;;;;;;;;;;5061873;28;20045;-68
2023/12/31 04:32:15;;;;;;;4.85;2.33;;;;;;;;;;5066235;28;20049;-69
2023/12/31 04:34:42;;;;;;;3.45;2.33;;;;;;;;;;5064093;28;20045;-69
2023/12/31 04:37:08;;;;;;;4.40;2.45;;;;;;;;;;5058977;28;20045;-69
2023/12/31 04:39:35;;;;;;;3.75;2.40;;;;;;;;;;5070215;28;20507;-69
2023/12/31 04:42:01;;;;;;;3.60;2.25;;;;;;;;;;5070453;28;20051;-69
2023/12/31 04:44:29;;;;;;;2.92;2.13;;;;;;;;;;5064437;28;20078;-69
2023/12/31 04:46:55;;;;;;;3.92;2.13;;;;;;;;;;5055022;28;20073;-69
2023/12/31 04:49:22;;;;;;;2.88;2.03;;;;;;;;;;5065069;28;20052;-69
2023/12/31 04:51:48;;;;;;;4.25;2.13;;;;;;;;;;5065889;28;20052;-69
2023/12/31 04:54:14;;;;;;;2.60;1.88;;;;;;;;;;5060820;28;20049;-69
2023/12/31 04:56:41;;;;;;;3.20;2.05;;;;;;;;;;5065329;28;20412;-69
2023/12/31 04:59:07;;;;;;;2.20;1.88;;;;;;;;;;5062954;28;20055;-69
2023/12/31 05:01:35;;;;;;;3.53;2.22;;;;;;;;;;5065919;28;20051;-69
2023/12/31 05:04:01;;;;;;;2.03;1.80;;;;;;;;;;5066168;28;20041;-69
2023/12/31 05:06:28;;;;;;;3.28;2.17;;;;;;;;;;5065685;28;20059;-69
2023/12/31 05:08:54;;;;;;;3.45;1.90;;;;;;;;;;5059397;28;20053;-69
2023/12/31 05:11:20;;;;;;;4.18;1.70;;;;;;;;;;5064407;28;20045;-69
2023/12/31 05:13:47;;;;;;;3.08;1.98;;;;;;;;;;5069639;28;20519;-69
2023/12/31 05:16:14;;;;;;;2.95;1.88;;;;;;;;;;5061306;28;20437;-69
2023/12/31 05:18:43;;;;;;;2.83;1.75;;;;;;;;;;5069879;28;20485;-69
2023/12/31 05:21:10;;;;;;;2.15;1.55;;;;;;;;;;5070007;28;20447;-69
2023/12/31 05:23:36;;;;;;;3.28;2.00;;;;;;;;;;5069602;28;20045;-68
2023/12/31 05:26:03;;;;;;;1.70;1.60;;;;;;;;;;5057415;28;20044;-69
2023/12/31 05:28:29;;;;;;;2.50;1.77;;;;;;;;;;5069980;28;20059;-69
2023/12/31 05:30:55;;;;;;;3.33;1.75;;;;;;;;;;5061668;28;20048;-68
2023/12/31 05:33:22;;;;;;;1.67;1.40;;;;;;;;;;5070569;28;20049;-69
2023/12/31 05:35:50;;;;;;;2.97;2.05;;;;;;;;;;5072783;28;20526;-69
2023/12/31 05:38:16;;;;;;;2.40;1.60;;;;;;;;;;5064804;28;20492;-69
2023/12/31 05:40:43;;;;;;;2.33;1.40;;;;;;;;;;5063529;28;20045;-69
2023/12/31 05:43:10;;;;;;;2.08;1.50;;;;;;;;;;5070331;28;20488;-69
2023/12/31 05:45:37;;;;;;;3.42;1.75;;;;;;;;;;5072634;28;20052;-69
2023/12/31 05:48:03;;;;;;;3.53;1.73;;;;;;;;;;5069072;28;20423;-69
2023/12/31 05:50:30;;;;;;;1.88;1.60;;;;;;;;;;5069153;28;20419;-69
2023/12/31 05:52:57;;;;;;;2.47;1.85;;;;;;;;;;5068780;28;20040;-69
2023/12/31 05:55:24;;;;;;;3.03;1.77;;;;;;;;;;5063387;28;20056;-69
2023/12/31 05:57:50;;;;;;;2.28;1.80;;;;;;;;;;5064421;28;20054;-69
2023/12/31 06:00:17;;;;;;;3.53;1.90;;;;;;;;;;5064773;28;20047;-69
2023/12/31 06:02:43;;;;;;;2.83;1.80;;;;;;;;;;5068669;28;20051;-69
2023/12/31 06:05:10;;;;;;;3.55;1.83;;;;;;;;;;5071719;28;20045;-69
2023/12/31 06:07:36;;;;;;;3.28;2.25;;;;;;;;;;5064281;28;20078;-69
2023/12/31 06:10:05;;;;;;;3.03;2.03;;;;;;;;;;5068611;28;20060;-69
2023/12/31 06:12:32;;;;;;;3.88;2.00;;;;;;;;;;5056633;28;20049;-69
2023/12/31 06:15:00;;;;;;;3.15;2.03;;;;;;;;;;5063481;28;20056;-69
2023/12/31 06:17:26;;;;;;;2.55;1.85;;;;;;;;;;5068233;28;20055;-69
2023/12/31 06:19:52;;;;;;;2.95;2.13;;;;;;;;;;5064340;28;20046;-69
2023/12/31 06:22:19;;;;;;;4.25;2.40;;;;;;;;;;5068014;28;20056;-68
2023/12/31 06:24:45;;;;;;;2.38;1.85;;;;;;;;;;5065814;28;20044;-69
2023/12/31 06:27:13;;;;;;;3.08;2.33;;;;;;;;;;5057936;28;20052;-69
2023/12/31 06:29:39;;;;;;;4.05;2.35;;;;;;;;;;5072438;28;20054;-69
2023/12/31 06:32:06;;;;;;;3.78;2.45;;;;;;;;;;5068011;28;20052;-69
2023/12/31 06:34:32;;;;;;;4.85;2.75;;;;;;;;;;5063030;28;20052;-69
2023/12/31 06:36:59;;;;;;;3.78;2.50;;;;;;;;;;5064356;28;20047;-69
2023/12/31 06:39:25;;;;;;;2.80;2.17;;;;;;;;;;5071356;28;20076;-69
2023/12/31 06:41:51;;;;;;;3.15;2.35;;;;;;;;;;5061545;28;20059;-69
2023/12/31 06:44:19;;;;;;;3.13;2.40;;;;;;;;;;5069121;28;20050;-68
2023/12/31 06:46:45;;;;;;;3.67;2.50;;;;;;;;;;5067721;28;20045;-69
2023/12/31 06:49:12;;;;;;;4.57;2.95;;;;;;;;;;5071643;28;20488;-69
2023/12/31 06:51:39;;;;;;;4.22;2.70;;;;;;;;;;5071704;28;20044;-69
2023/12/31 06:54:05;;;;;;;5.68;2.70;;;;;;;;;;5071607;28;20466;-69
2023/12/31 06:56:31;;;;;;;5.07;2.85;;;;;;;;;;5067380;28;20072;-69
2023/12/31 06:58:58;;;;;;;4.40;2.92;;;;;;;;;;5059947;28;20048;-68
2023/12/31 07:01:26;;;;;;;5.32;3.08;;;;;;;;;;5066721;28;20053;-68
2023/12/31 07:03:52;;;;;;;5.35;3.65;;;;;;;;;;5066854;28;20044;-69
2023/12/31 07:06:19;;;;;;;4.15;3.03;;;;;;;;;;5067198;28;20067;-69
2023/12/31 07:08:45;;;;;;;5.65;3.15;;;;;;;;;;5071421;28;20050;-69
2023/12/31 07:11:14;;;;;;;4.90;3.33;;;;;;;;;;5071311;28;20056;-69
2023/12/31 07:13:41;;;;;;;5.85;3.45;;;;;;;;;;5066087;28;20044;-69
2023/12/31 07:16:07;;;;;;;4.97;3.05;;;;;;;;;;5063605;28;20049;-69
2023/12/31 07:18:36;;;;;;;4.85;3.20;;;;;;;;;;5063013;28;20493;-69
2023/12/31 07:21:02;;;;;;;6.00;3.55;;;;;;;;;;5063572;28;20044;-68
2023/12/31 07:23:29;;;;;;;5.07;3.65;;;;;;;;;;5058745;28;20394;-68
2023/12/31 07:25:55;;;;;;;6.35;3.33;;;;;;;;;;5063874;28;20136;-69
2023/12/31 07:28:21;;;;;;;5.88;3.45;;;;;;;;;;5065908;28;20048;-69
2023/12/31 07:30:48;;;;;;;6.75;3.40;;;;;;;;;;5066897;28;20054;-69
2023/12/31 07:33:14;;;;;;;5.15;3.40;;;;;;;;;;5066251;28;20044;-69
2023/12/31 07:35:42;;;;;;;5.57;3.72;;;;;;;;;;5065780;28;20514;-69
2023/12/31 07:38:10;;;;;;;5.57;3.55;;;;;;;;;;5063931;28;20055;-68
2023/12/31 07:40:37;;;;;;;6.43;3.22;;;;;;;;;;5067540;28;20049;-69
2023/12/31 07:43:03;;;;;;;5.28;3.58;;;;;;;;;;5066833;28;20045;-69
2023/12/31 07:45:31;;;;;;;4.90;3.60;;;;;;;;;;5058522;28;20543;-69
2023/12/31 07:47:57;;;;;;;6.45;3.95;;;;;;;;;;5064243;28;20408;-69
2023/12/31 07:50:24;;;;;;;5.90;3.97;;;;;;;;;;5066456;28;20049;-69
2023/12/31 07:52:52;;;;;;;5.78;3.88;;;;;;;;;;5062878;28;20094;-69
2023/12/31 07:55:18;;;;;;;5.60;3.63;;;;;;;;;;5065198;28;20047;-69
2023/12/31 07:57:45;;;;;;;4.85;3.40;;;;;;;;;;5066635;28;20045;-69
2023/12/31 08:00:12;;;;;;;5.82;3.35;;;;;;;;;;5062414;28;20131;-69
2023/12/31 08:02:38;;;;;;;4.40;3.28;;;;;;;;;;5070490;28;20083;-69
2023/12/31 08:05:05;;;;;;;5.10;3.33;;;;;;;;;;5058303;28;20045;-69
2023/12/31 08:07:32;;;;;;;4.10;3.20;;;;;;;;;;5063155;28;20044;-69
2023/12/31 08:10:00;;;;;;;5.60;3.85;;;;;;;;;;5066894;28;20051;-69
2023/12/31 08:12:26;;;;;;;6.18;3.65;;;;;;;;;;5062625;28;20063;-69
2023/12/31 08:14:52;;;;;;;5.38;3.85;;;;;;;;;;5069150;28;20044;-69
2023/12/31 08:17:19;;;;;;;4.78;3.60;;;;;;;;;;5070684;28;20052;-69
2023/12/31 08:19:45;;;;;;;5.28;3.50;;;;;;;;;;5067037;28;20052;-69
2023/12/31 08:22:12;;;;;;;4.80;3.78;;;;;;;;;;5069450;28;20051;-69
2023/12/31 08:24:38;;;;;;;6.72;3.67;;;;;;;;;;5066511;28;20050;-69
2023/12/31 08:27:06;;;;;;;4.45;3.33;;;;;;;;;;5058991;28;20059;-69
2023/12/31 08:29:32;;;;;;;5.03;3.67;;;;;;;;;;5063334;28;20049;-69
2023/12/31 08:31:58;;;;;;;6.22;3.90;;;;;;;;;;5063435;28;20067;-69
2023/12/31 08:34:25;;;;;;;4.93;3.60;;;;;;;;;;5065357;28;20048;-69
2023/12/31 08:36:52;;;;;;;6.18;4.30;;;;;;;;;;5066457;28;20055;-69
2023/12/31 08:39:19;;;;;;;5.72;3.72;;;;;;;;;;5062681;28;20047;-69
2023/12/31 08:41:45;;;;;;;6.50;4.10;;;;;;;;;;5070712;28;20058;-69
2023/12/31 08:44:13;;;;;;;5.47;3.97;;;;;;;;;;5070124;28;20294;-69
2023/12/31 08:46:39;;;;;;;8.15;3.75;;;;;;;;;;5062563;28;20048;-69
2023/12/31 08:49:07;;;;;;;6.93;4.65;;;;;;;;;;5066400;28;20103;-69
2023/12/31 08:51:33;;;;;;;8.40;5.00;;;;;;;;;;5070215;28;20518;-69
2023/12/31 08:53:59;;;;;;;6.18;4.05;;;;;;;;;;5058191;28;20123;-69
2023/12/31 08:56:26;;;;;;;4.55;3.30;;;;;;;;;;5060583;28;20055;-68
2023/12/31 08:58:52;;;;;;;6.35;3.70;;;;;;;;;;5063747;28;20048;-69
2023/12/31 09:01:20;;;;;;;5.68;3.40;;;;;;;;;;5066743;28;20049;-69
2023/12/31 09:03:47;;;;;;;4.38;3.40;;;;;;;;;;5062086;28;20045;-69
2023/12/31 09:06:13;;;;;;;4.78;3.45;;;;;;;;;;5063213;28;20442;-69
2023/12/31 09:08:40;;;;;;;4.43;3.10;;;;;;;;;;5065844;28;20051;-69
2023/12/31 09:11:06;;;;;;;6.10;3.97;;;;;;;;;;5069533;28;20495;-68
2023/12/31 09:13:33;;;;;;;4.55;3.50;;;;;;;;;;5069600;28;20063;-69
2023/12/31 09:15:59;;;;;;;4.82;3.25;;;;;;;;;;5065936;28;20548;-69
2023/12/31 09:18:28;;;;;;;3.40;2.92;;;;;;;;;;5064779;28;20534;-69
2023/12/31 09:20:54;;;;;;;6.72;4.03;;;;;;;;;;5066913;28;20416;-69
2023/12/31 09:23:21;;;;;;;3.85;3.13;;;;;;;;;;5063613;28;20045;-69
2023/12/31 09:25:47;;;;;;;4.43;2.80;;;;;;;;;;5068703;28;20048;-69
2023/12/31 09:28:17;;;;;;;3.08;2.08;;;;;;;;;;5073378;28;20051;-68
2023/12/31 09:30:43;;;;;;;2.40;1.98;;;;;;;;;;5064373;28;20052;-69
2023/12/31 09:33:10;;;;;;;4.65;2.10;;;;;;;;;;5061457;28;20049;-69
2023/12/31 09:35:38;;;;;;;2.55;1.95;;;;;;;;;;5069782;28;20052;-69
2023/12/31 09:38:04;;;;;;;2.88;1.98;;;;;;;;;;5060823;28;20041;-69
2023/12/31 09:40:30;;;;;;;2.28;2.00;;;;;;;;;;5065787;28;20048;-69
2023/12/31 09:43:00;;;;;;;1.58;1.48;;;;;;;;;;5068819;28;20044;-69
2023/12/31 09:45:28;;;;;;;1.98;1.45;;;;;;;;;;5068162;28;20052;-69
2023/12/31 09:47:55;;;;;;;2.28;1.77;;;;;;;;;;5062378;28;20151;-69
2023/12/31 09:50:22;;;;;;;2.60;1.90;;;;;;;;;;5067748;28;20050;-69
2023/12/31 09:52:50;;;;;;;2.92;1.70;;;;;;;;;;5064619;28;20044;-69
2023/12/31 09:55:18;;;;;;;2.72;2.10;;;;;;;;;;5063526;28;20049;-69
2023/12/31 09:57:46;;;;;;;2.38;1.83;;;;;;;;;;5064773;28;20106;-69
2023/12/31 10:00:13;;;;;;;4.03;1.63;;;;;;;;;;5068967;28;20045;-69
2023/12/31 10:02:40;;;;;;;2.40;1.30;;;;;;;;;;5060263;28;20052;-68
2023/12/31 10:05:07;;;;;;;2.63;1.23;;;;;;;;;;5052393;28;20079;-69
2023/12/31 10:07:34;;;;;;;3.35;1.50;;;;;;;;;;5068933;28;20052;-69
2023/12/31 10:10:02;;;;;;;2.42;1.40;;;;;;;;;;5070295;28;20425;-68
2023/12/31 10:12:29;;;;;;;2.63;1.30;;;;;;;;;;5064596;28;20051;-69
2023/12/31 10:14:55;;;;;;;1.52;1.13;;;;;;;;;;5065460;28;20528;-69
2023/12/31 10:17:22;;;;;;;4.53;1.10;;;;;;;;;;5063693;28;20055;-69
2023/12/31 10:19:48;;;;;;;2.28;0.93;;;;;;;;;;5063945;28;20051;-69
2023/12/31 10:22:15;;;;;;;1.75;0.88;;;;;;;;;;5069052;28;20040;-70
2023/12/31 10:24:41;;;;;;;1.65;0.90;;;;;;;;;;5067137;28;20094;-69
2023/12/31 10:27:09;;;;;;;3.22;1.23;;;;;;;;;;5061817;28;20053;-69
2023/12/31 10:29:36;;;;;;;2.15;1.33;;;;;;;;;;5064638;28;20071;-69
2023/12/31 10:32:03;;;;;;;4.40;1.23;;;;;;;;;;5062135;28;20057;-69
2023/12/31 10:34:29;;;;;;;3.85;1.45;;;;;;;;;;5071593;28;20063;-69
2023/12/31 10:37:01;;;;;;;3.60;1.50;;;;;;;;;;5068962;28;20135;-69
2023/12/31 10:39:28;;;;;;;2.42;0.95;;;;;;;;;;5064559;28;20064;-69
2023/12/31 10:41:57;;;;;;;2.00;1.13;;;;;;;;;;5064713;28;20056;-69
2023/12/31 10:44:25;;;;;;;1.48;0.90;;;;;;;;;;5059700;28;20078;-68
2023/12/31 10:46:52;;;;;;;2.60;1.10;;;;;;;;;;5062073;28;20051;-68
2023/12/31 10:49:22;;;;;;;1.60;0.98;;;;;;;;;;5067054;28;20312;-69
2023/12/31 10:51:48;;;;;;;1.65;0.75;;;;;;;;;;5064828;28;20049;-70
2023/12/31 10:54:17;;;;;;;1.13;0.70;;;;;;;;;;5067558;28;20060;-68
2023/12/31 10:56:43;;;;;;;1.42;0.80;;;;;;;;;;5063570;28;20147;-69
2023/12/31 10:59:12;;;;;;;3.00;1.10;;;;;;;;;;5057346;28;20045;-69
2023/12/31 11:01:40;;;;;;;2.47;1.00;;;;;;;;;;5068614;28;20131;-69
2023/12/31 11:04:07;;;;;;;1.90;0.88;;;;;;;;;;5068339;28;20135;-69
2023/12/31 11:06:34;;;;;;;2.53;0.90;;;;;;;;;;5068704;28;20040;-68
2023/12/31 11:09:00;;;;;;;2.53;0.90;;;;;;;;;;5061537;28;20053;-69
2023/12/31 11:11:27;;;;;;;3.30;1.40;;;;;;;;;;5063753;28;20130;-69
2023/12/31 11:13:55;;;;;;;3.00;1.10;;;;;;;;;;5065862;28;20072;-69
2023/12/31 11:16:30;;;;;;;3.15;1.00;;;;;;;;;;5058741;28;20467;-69
2023/12/31 11:19:22;;;;;;;2.08;1.00;;;;;;;;;;5065315;28;20040;-69
2023/12/31 11:21:54;;;;;;;2.72;1.20;;;;;;;;;;5067263;28;20066;-69
2023/12/31 11:24:23;;;;;;;2.47;1.13;;;;;;;;;;5065796;28;20049;-69
2023/12/31 11:27:03;;;;;;;1.88;1.00;;;;;;;;;;5066580;28;20045;-69
2023/12/31 11:29:29;;;;;;;3.15;0.95;;;;;;;;;;5063628;28;20056;-69
2023/12/31 11:31:56;;;;;;;1.85;0.95;;;;;;;;;;5064578;28;20518;-69
2023/12/31 11:34:24;;;;;;;1.88;1.13;;;;;;;;;;5061410;28;20144;-69
2023/12/31 11:36:53;;;;;;;5.80;1.45;;;;;;;;;;5059335;28;20047;-69
2023/12/31 11:39:23;;;;;;;1.90;0.88;;;;;;;;;;5066371;28;20127;-69
2023/12/31 11:41:50;;;;;;;3.05;1.30;;;;;;;;;;5067066;28;20072;-69
2023/12/31 11:44:36;;;;;;;2.53;1.45;;;;;;;;;;5065877;28;20044;-69
2023/12/31 11:47:02;;;;;;;3.85;1.55;;;;;;;;;;5056692;28;20045;-69
2023/12/31 11:49:31;;;;;;;3.97;0.90;;;;;;;;;;5064715;28;20135;-69
2023/12/31 11:51:58;;;;;;;3.25;1.33;;;;;;;;;;5060465;28;20500;-69
2023/12/31 11:54:24;;;;;;;3.65;1.05;;;;;;;;;;5069509;28;20056;-69
2023/12/31 11:56:54;;;;;;;3.53;1.17;;;;;;;;;;5067588;28;20051;-69
2023/12/31 11:59:21;;;;;;;1.95;1.08;;;;;;;;;;5059647;28;20091;-69
2023/12/31 12:01:49;;;;;;;2.05;1.00;;;;;;;;;;5071268;28;20090;-69
2023/12/31 12:04:15;;;;;;;3.42;1.08;;;;;;;;;;5061613;28;20053;-68
2023/12/31 12:06:43;;;;;;;1.88;0.85;;;;;;;;;;5064074;28;20485;-69
2023/12/31 12:09:09;;;;;;;2.47;1.08;;;;;;;;;;5055557;28;20136;-69
2023/12/31 12:11:38;;;;;;;1.90;0.80;;;;;;;;;;5059934;28;20117;-68
2023/12/31 12:14:04;;;;;;;1.75;1.25;;;;;;;;;;5059826;28;20045;-69
2023/12/31 12:16:32;;;;;;;2.95;1.00;;;;;;;;;;5050791;28;20045;-69
2023/12/31 12:18:59;;;;;;;2.60;1.30;;;;;;;;;;5067082;28;20059;-69
2023/12/31 12:21:26;;;;;;;2.20;1.45;;;;;;;;;;5067667;28;20571;-69
2023/12/31 12:23:54;;;;;;;2.25;1.20;;;;;;;;;;5064014;28;20170;-69
2023/12/31 12:26:23;;;;;;;1.83;1.00;;;;;;;;;;5058377;28;20045;-69
2023/12/31 12:28:50;;;;;;;2.10;0.80;;;;;;;;;;5058824;28;20515;-69
2023/12/31 12:31:17;;;;;;;3.38;0.95;;;;;;;;;;5058570;28;20082;-69
2023/12/31 12:33:51;;;;;;;4.00;1.00;;;;;;;;;;5059205;28;20056;-69
2023/12/31 12:36:22;;;;;;;3.15;0.93;;;;;;;;;;5066073;28;20487;-69
2023/12/31 12:38:49;;;;;;;3.95;1.20;;;;;;;;;;5060342;28;20040;-69
2023/12/31 12:41:23;;;;;;;1.40;0.80;;;;;;;;;;5058773;28;20045;-69
2023/12/31 12:43:57;;;;;;;3.28;1.05;;;;;;;;;;5068387;28;20055;-68
2023/12/31 12:46:26;;;;;;;1.92;0.80;;;;;;;;;;5069912;28;20246;-69
2023/12/31 12:48:52;;;;;;;3.72;1.13;;;;;;;;;;5066468;28;20059;-69
2023/12/31 12:51:19;;;;;;;8.20;1.42;;;;;;;;;;5061851;28;20045;-69
2023/12/31 12:53:45;;;;;;;4.57;1.10;;;;;;;;;;5069657;28;20040;-69
2023/12/31 12:56:11;;;;;;;4.22;1.17;;;;;;;;;;5068417;28;20049;-69
2023/12/31 12:58:39;;;;;;;5.70;1.38;;;;;;;;;;5062815;28;20052;-68
2023/12/31 13:01:06;;;;;;;5.15;1.10;;;;;;;;;;5070073;28;20053;-69
2023/12/31 13:03:32;;;;;;;4.25;1.10;;;;;;;;;;5065750;28;20060;-68
2023/12/31 13:05:59;;;;;;;5.13;1.15;;;;;;;;;;5066360;28;20408;-69
2023/12/31 13:08:25;;;;;;;3.33;1.27;;;;;;;;;;5064947;28;20053;-69
2023/12/31 13:10:52;;;;;;;4.30;1.05;;;;;;;;;;5069885;28;20508;-69
2023/12/31 13:13:18;;;;;;;3.60;1.00;;;;;;;;;;5069148;28;20047;-68
2023/12/31 13:15:49;;;;;;;2.45;0.88;;;;;;;;;;5065118;28;20051;-69
2023/12/31 13:18:15;;;;;;;4.13;1.20;;;;;;;;;;5065382;28;20048;-69
2023/12/31 13:20:42;;;;;;;6.20;1.33;;;;;;;;;;5069594;28;20425;-69
2023/12/31 13:23:09;;;;;;;3.85;1.02;;;;;;;;;;5064914;28;20049;-69
2023/12/31 13:25:35;;;;;;;5.05;1.35;;;;;;;;;;5073152;28;20132;-69
2023/12/31 13:28:02;;;;;;;5.60;1.23;;;;;;;;;;5069725;28;20055;-69
2023/12/31 13:30:28;;;;;;;4.70;1.20;;;;;;;;;;5069546;28;20155;-69
2023/12/31 13:32:56;;;;;;;3.67;1.27;;;;;;;;;;5062844;28;20135;-69
2023/12/31 13:35:22;;;;;;;5.88;1.30;;;;;;;;;;5059314;28;20067;-69
2023/12/31 13:37:49;;;;;;;5.40;1.35;;;;;;;;;;5068896;28;20067;-69
2023/12/31 13:40:16;;;;;;;6.13;1.90;;;;;;;;;;5069303;28;20044;-69
2023/12/31 13:42:42;;;;;;;5.68;1.55;;;;;;;;;;5068207;28;20044;-69
2023/12/31 13:45:09;;;;;;;7.65;1.75;;;;;;;;;;5065087;28;20540;-69
2023/12/31 13:47:35;;;;;;;5.95;1.52;;;;;;;;;;5068925;28;20048;-68
2023/12/31 13:50:04;;;;;;;2.53;1.02;;;;;;;;;;5057097;28;20519;-69
2023/12/31 13:52:32;;;;;;;4.20;1.05;;;;;;;;;;5064634;28;20053;-68
2023/12/31 13:54:58;;;;;;;5.03;1.20;;;;;;;;;;5063772;28;20447;-68
2023/12/31 13:57:25;;;;;;;5.00;1.60;;;;;;;;;;5063706;28;20041;-69
2023/12/31 13:59:51;;;;;;;3.85;1.70;;;;;;;;;;5069009;28;20047;-69
2023/12/31 14:02:18;;;;;;;5.55;1.60;;;;;;;;;;5064465;28;20052;-69
2023/12/31 14:04:45;;;;;;;5.22;1.67;;;;;;;;;;5062346;28;20045;-69
2023/12/31 14:07:13;;;;;;;5.05;1.65;;;;;;;;;;5061775;28;20045;-69
2023/12/31 14:09:40;;;;;;;4.47;1.50;;;;;;;;;;5068445;28;20051;-69
2023/12/31 14:12:06;;;;;;;9.35;2.40;;;;;;;;;;5068988;28;20041;-69
2023/12/31 14:14:33;;;;;;;6.53;2.20;;;;;;;;;;5071906;28;20452;-69
2023/12/31 14:17:02;;;;;;;7.55;1.65;;;;;;;;;;5069555;28;20044;-69
2023/12/31 14:19:28;;;;;;;6.32;2.15;;;;;;;;;;5067521;28;20048;-69
2023/12/31 14:21:54;;;;;;;7.93;2.55;;;;;;;;;;5066123;28;20118;-69
2023/12/31 14:24:22;;;;;;;5.97;1.38;;;;;;;;;;5061844;28;20051;-69
2023/12/31 14:26:48;;;;;;;3.72;1.27;;;;;;;;;;5068748;28;20399;-69
2023/12/31 14:29:15;;;;;;;9.02;3.63;;;;;;;;;;5071036;28;20052;-69
2023/12/31 14:31:41;;;;;;;5.60;1.90;;;;;;;;;;5061146;28;20051;-68
2023/12/31 14:34:08;;;;;;;4.60;1.42;;;;;;;;;;5067599;28;20539;-69
2023/12/31 14:36:34;;;;;;;5.40;1.77;;;;;;;;;;5063909;28;20424;-69
2023/12/31 14:39:01;;;;;;;8.52;2.30;;;;;;;;;;5068851;28;20136;-69
2023/12/31 14:41:29;;;;;;;7.55;1.95;;;;;;;;;;5063511;28;20423;-69